sensor_id;sensor_type;location;lat;lon;timestamp;P1;durP1;ratioP1;P2;durP2;ratioP2
41829;SDS011;38614;43.472;23.936;2023-12-07T00:01:48;38.38;;;11.50;;
41829;SDS011;38614;43.472;23.936;2023-12-07T00:04:35;33.10;;;10.65;;
41829;SDS011;38614;43.472;23.936;2023-12-07T00:07:23;25.55;;;9.02;;
41829;SDS011;38614;43.472;23.936;2023-12-07T00:10:11;33.33;;;10.20;;
41829;SDS011;38614;43.472;23.936;2023-12-07T00:12:59;42.28;;;10.93;;
41829;SDS011;38614;43.472;23.936;2023-12-07T00:15:46;28.73;;;8.52;;
41829;SDS011;38614;43.472;23.936;2023-12-07T00:18:35;36.72;;;10.48;;
41829;SDS011;38614;43.472;23.936;2023-12-07T00:21:22;37.38;;;10.65;;
41829;SDS011;38614;43.472;23.936;2023-12-07T00:24:10;30.38;;;9.93;;
41829;SDS011;38614;43.472;23.936;2023-12-07T00:26:58;45.92;;;12.35;;
41829;SDS011;38614;43.472;23.936;2023-12-07T00:29:46;28.15;;;10.38;;
41829;SDS011;38614;43.472;23.936;2023-12-07T00:32:33;35.90;;;11.95;;
41829;SDS011;38614;43.472;23.936;2023-12-07T00:35:21;45.70;;;11.43;;
41829;SDS011;38614;43.472;23.936;2023-12-07T00:38:12;37.05;;;10.38;;
41829;SDS011;38614;43.472;23.936;2023-12-07T00:40:59;57.45;;;13.55;;
41829;SDS011;38614;43.472;23.936;2023-12-07T00:43:47;44.08;;;14.63;;
41829;SDS011;38614;43.472;23.936;2023-12-07T00:46:35;40.60;;;10.32;;
41829;SDS011;38614;43.472;23.936;2023-12-07T00:49:23;36.55;;;11.70;;
41829;SDS011;38614;43.472;23.936;2023-12-07T00:52:10;31.55;;;9.50;;
41829;SDS011;38614;43.472;23.936;2023-12-07T00:54:58;37.85;;;10.20;;
41829;SDS011;38614;43.472;23.936;2023-12-07T00:57:58;29.75;;;9.75;;
41829;SDS011;38614;43.472;23.936;2023-12-07T01:00:51;29.83;;;9.57;;
41829;SDS011;38614;43.472;23.936;2023-12-07T01:03:39;22.95;;;7.90;;
41829;SDS011;38614;43.472;23.936;2023-12-07T01:06:27;33.85;;;9.48;;
41829;SDS011;38614;43.472;23.936;2023-12-07T01:09:18;24.02;;;8.30;;
41829;SDS011;38614;43.472;23.936;2023-12-07T01:12:05;41.40;;;11.38;;
41829;SDS011;38614;43.472;23.936;2023-12-07T01:14:53;40.15;;;10.77;;
41829;SDS011;38614;43.472;23.936;2023-12-07T01:17:41;31.38;;;9.80;;
41829;SDS011;38614;43.472;23.936;2023-12-07T01:20:32;37.67;;;9.73;;
41829;SDS011;38614;43.472;23.936;2023-12-07T01:23:19;34.92;;;10.05;;
41829;SDS011;38614;43.472;23.936;2023-12-07T01:26:07;43.97;;;11.13;;
41829;SDS011;38614;43.472;23.936;2023-12-07T01:28:55;27.95;;;8.35;;
41829;SDS011;38614;43.472;23.936;2023-12-07T01:31:43;31.50;;;8.52;;
41829;SDS011;38614;43.472;23.936;2023-12-07T01:34:31;34.45;;;9.88;;
41829;SDS011;38614;43.472;23.936;2023-12-07T01:37:22;24.20;;;8.57;;
41829;SDS011;38614;43.472;23.936;2023-12-07T01:40:11;34.58;;;11.98;;
41829;SDS011;38614;43.472;23.936;2023-12-07T01:42:59;44.88;;;12.02;;
41829;SDS011;38614;43.472;23.936;2023-12-07T01:45:46;31.83;;;11.32;;
41829;SDS011;38614;43.472;23.936;2023-12-07T01:48:34;24.55;;;9.23;;
41829;SDS011;38614;43.472;23.936;2023-12-07T01:51:22;28.38;;;9.13;;
41829;SDS011;38614;43.472;23.936;2023-12-07T01:54:12;40.17;;;9.55;;
41829;SDS011;38614;43.472;23.936;2023-12-07T01:57:00;44.42;;;11.48;;
41829;SDS011;38614;43.472;23.936;2023-12-07T01:59:48;38.50;;;11.88;;
41829;SDS011;38614;43.472;23.936;2023-12-07T02:02:37;39.92;;;13.40;;
41829;SDS011;38614;43.472;23.936;2023-12-07T02:05:27;32.37;;;11.20;;
41829;SDS011;38614;43.472;23.936;2023-12-07T02:08:17;41.15;;;10.52;;
41829;SDS011;38614;43.472;23.936;2023-12-07T02:11:05;37.83;;;10.27;;
41829;SDS011;38614;43.472;23.936;2023-12-07T02:13:53;31.75;;;10.88;;
41829;SDS011;38614;43.472;23.936;2023-12-07T02:16:45;26.23;;;8.32;;
41829;SDS011;38614;43.472;23.936;2023-12-07T02:22:27;24.90;;;8.60;;
41829;SDS011;38614;43.472;23.936;2023-12-07T02:25:17;34.80;;;10.73;;
41829;SDS011;38614;43.472;23.936;2023-12-07T02:28:06;31.02;;;11.25;;
41829;SDS011;38614;43.472;23.936;2023-12-07T02:30:53;35.75;;;10.13;;
41829;SDS011;38614;43.472;23.936;2023-12-07T02:33:41;32.28;;;9.48;;
41829;SDS011;38614;43.472;23.936;2023-12-07T02:36:29;36.92;;;10.63;;
41829;SDS011;38614;43.472;23.936;2023-12-07T02:39:17;27.20;;;10.23;;
41829;SDS011;38614;43.472;23.936;2023-12-07T02:42:05;26.25;;;8.38;;
41829;SDS011;38614;43.472;23.936;2023-12-07T02:44:54;35.13;;;9.77;;
41829;SDS011;38614;43.472;23.936;2023-12-07T02:47:42;25.83;;;10.85;;
41829;SDS011;38614;43.472;23.936;2023-12-07T02:50:32;28.02;;;10.38;;
41829;SDS011;38614;43.472;23.936;2023-12-07T02:53:20;30.10;;;9.93;;
41829;SDS011;38614;43.472;23.936;2023-12-07T02:56:08;28.67;;;10.23;;
41829;SDS011;38614;43.472;23.936;2023-12-07T02:58:55;26.23;;;8.73;;
41829;SDS011;38614;43.472;23.936;2023-12-07T03:01:44;28.58;;;9.35;;
41829;SDS011;38614;43.472;23.936;2023-12-07T03:04:32;31.38;;;9.65;;
41829;SDS011;38614;43.472;23.936;2023-12-07T03:07:20;27.52;;;8.75;;
41829;SDS011;38614;43.472;23.936;2023-12-07T03:10:07;28.55;;;8.48;;
41829;SDS011;38614;43.472;23.936;2023-12-07T03:12:55;28.27;;;8.55;;
41829;SDS011;38614;43.472;23.936;2023-12-07T03:15:43;20.63;;;8.05;;
41829;SDS011;38614;43.472;23.936;2023-12-07T03:18:31;27.90;;;7.90;;
41829;SDS011;38614;43.472;23.936;2023-12-07T03:21:19;28.90;;;10.57;;
41829;SDS011;38614;43.472;23.936;2023-12-07T03:24:07;35.25;;;10.65;;
41829;SDS011;38614;43.472;23.936;2023-12-07T03:26:58;26.02;;;9.77;;
41829;SDS011;38614;43.472;23.936;2023-12-07T03:29:45;20.27;;;8.90;;
41829;SDS011;38614;43.472;23.936;2023-12-07T03:32:33;22.00;;;8.60;;
41829;SDS011;38614;43.472;23.936;2023-12-07T03:35:21;26.42;;;8.68;;
41829;SDS011;38614;43.472;23.936;2023-12-07T03:38:08;23.40;;;8.40;;
41829;SDS011;38614;43.472;23.936;2023-12-07T03:41:01;37.88;;;9.02;;
41829;SDS011;38614;43.472;23.936;2023-12-07T03:43:49;24.15;;;8.73;;
41829;SDS011;38614;43.472;23.936;2023-12-07T03:46:37;26.70;;;8.02;;
41829;SDS011;38614;43.472;23.936;2023-12-07T03:49:24;34.45;;;9.77;;
41829;SDS011;38614;43.472;23.936;2023-12-07T03:52:12;26.50;;;7.82;;
41829;SDS011;38614;43.472;23.936;2023-12-07T03:55:00;29.13;;;7.55;;
41829;SDS011;38614;43.472;23.936;2023-12-07T03:57:48;23.65;;;6.93;;
41829;SDS011;38614;43.472;23.936;2023-12-07T04:00:36;25.10;;;6.68;;
41829;SDS011;38614;43.472;23.936;2023-12-07T04:03:27;32.92;;;9.38;;
41829;SDS011;38614;43.472;23.936;2023-12-07T04:06:14;20.00;;;7.15;;
41829;SDS011;38614;43.472;23.936;2023-12-07T04:09:02;34.22;;;7.70;;
41829;SDS011;38614;43.472;23.936;2023-12-07T04:11:52;21.80;;;9.07;;
41829;SDS011;38614;43.472;23.936;2023-12-07T04:14:40;15.43;;;6.70;;
41829;SDS011;38614;43.472;23.936;2023-12-07T04:17:28;22.60;;;8.57;;
41829;SDS011;38614;43.472;23.936;2023-12-07T04:20:17;22.35;;;7.53;;
41829;SDS011;38614;43.472;23.936;2023-12-07T04:23:05;21.95;;;7.45;;
41829;SDS011;38614;43.472;23.936;2023-12-07T04:25:53;21.55;;;8.15;;
41829;SDS011;38614;43.472;23.936;2023-12-07T04:28:42;28.25;;;8.02;;
41829;SDS011;38614;43.472;23.936;2023-12-07T04:31:30;22.73;;;7.85;;
41829;SDS011;38614;43.472;23.936;2023-12-07T04:34:20;14.95;;;6.97;;
41829;SDS011;38614;43.472;23.936;2023-12-07T04:37:08;20.73;;;7.70;;
41829;SDS011;38614;43.472;23.936;2023-12-07T04:39:56;17.88;;;7.18;;
41829;SDS011;38614;43.472;23.936;2023-12-07T04:42:44;20.15;;;7.32;;
41829;SDS011;38614;43.472;23.936;2023-12-07T04:45:32;16.55;;;6.72;;
41829;SDS011;38614;43.472;23.936;2023-12-07T04:48:20;13.50;;;5.97;;
41829;SDS011;38614;43.472;23.936;2023-12-07T04:51:08;23.38;;;9.57;;
41829;SDS011;38614;43.472;23.936;2023-12-07T04:53:56;18.70;;;8.40;;
41829;SDS011;38614;43.472;23.936;2023-12-07T04:56:58;25.00;;;10.23;;
41829;SDS011;38614;43.472;23.936;2023-12-07T04:59:47;24.42;;;9.68;;
41829;SDS011;38614;43.472;23.936;2023-12-07T05:02:35;16.90;;;6.90;;
41829;SDS011;38614;43.472;23.936;2023-12-07T05:05:23;17.30;;;7.70;;
41829;SDS011;38614;43.472;23.936;2023-12-07T05:08:12;22.08;;;7.20;;
41829;SDS011;38614;43.472;23.936;2023-12-07T05:11:00;19.40;;;7.82;;
41829;SDS011;38614;43.472;23.936;2023-12-07T05:13:48;26.90;;;8.82;;
41829;SDS011;38614;43.472;23.936;2023-12-07T05:16:36;23.20;;;8.85;;
41829;SDS011;38614;43.472;23.936;2023-12-07T05:19:24;22.25;;;7.78;;
41829;SDS011;38614;43.472;23.936;2023-12-07T05:22:13;36.10;;;13.27;;
41829;SDS011;38614;43.472;23.936;2023-12-07T05:25:01;36.72;;;16.15;;
41829;SDS011;38614;43.472;23.936;2023-12-07T05:27:49;35.92;;;15.25;;
41829;SDS011;38614;43.472;23.936;2023-12-07T05:30:37;33.55;;;11.38;;
41829;SDS011;38614;43.472;23.936;2023-12-07T05:33:24;24.00;;;8.40;;
41829;SDS011;38614;43.472;23.936;2023-12-07T05:36:12;27.75;;;10.15;;
41829;SDS011;38614;43.472;23.936;2023-12-07T05:39:00;22.95;;;8.95;;
41829;SDS011;38614;43.472;23.936;2023-12-07T05:41:48;28.20;;;10.32;;
41829;SDS011;38614;43.472;23.936;2023-12-07T05:44:36;31.40;;;10.05;;
41829;SDS011;38614;43.472;23.936;2023-12-07T05:47:23;26.48;;;11.00;;
41829;SDS011;38614;43.472;23.936;2023-12-07T05:50:11;24.23;;;9.18;;
41829;SDS011;38614;43.472;23.936;2023-12-07T05:52:59;25.55;;;8.85;;
41829;SDS011;38614;43.472;23.936;2023-12-07T05:55:47;22.08;;;8.60;;
41829;SDS011;38614;43.472;23.936;2023-12-07T05:58:35;48.42;;;15.63;;
41829;SDS011;38614;43.472;23.936;2023-12-07T06:01:23;28.17;;;10.88;;
41829;SDS011;38614;43.472;23.936;2023-12-07T06:04:12;25.95;;;9.15;;
41829;SDS011;38614;43.472;23.936;2023-12-07T06:07:00;25.35;;;11.98;;
41829;SDS011;38614;43.472;23.936;2023-12-07T06:09:49;23.83;;;9.23;;
41829;SDS011;38614;43.472;23.936;2023-12-07T06:12:37;18.52;;;8.75;;
41829;SDS011;38614;43.472;23.936;2023-12-07T06:15:25;26.45;;;8.23;;
41829;SDS011;38614;43.472;23.936;2023-12-07T06:18:13;24.55;;;6.28;;
41829;SDS011;38614;43.472;23.936;2023-12-07T06:21:01;18.33;;;7.72;;
41829;SDS011;38614;43.472;23.936;2023-12-07T06:23:50;14.25;;;5.35;;
41829;SDS011;38614;43.472;23.936;2023-12-07T06:26:38;13.07;;;5.85;;
41829;SDS011;38614;43.472;23.936;2023-12-07T06:29:25;22.73;;;8.60;;
41829;SDS011;38614;43.472;23.936;2023-12-07T06:32:16;43.08;;;19.55;;
41829;SDS011;38614;43.472;23.936;2023-12-07T06:35:06;30.17;;;12.55;;
41829;SDS011;38614;43.472;23.936;2023-12-07T06:37:57;18.67;;;7.05;;
41829;SDS011;38614;43.472;23.936;2023-12-07T06:40:44;24.30;;;6.97;;
41829;SDS011;38614;43.472;23.936;2023-12-07T06:43:32;13.27;;;6.03;;
41829;SDS011;38614;43.472;23.936;2023-12-07T06:46:20;24.23;;;12.05;;
41829;SDS011;38614;43.472;23.936;2023-12-07T06:49:07;31.20;;;13.88;;
41829;SDS011;38614;43.472;23.936;2023-12-07T06:51:55;24.85;;;9.50;;
41829;SDS011;38614;43.472;23.936;2023-12-07T06:54:43;25.98;;;12.27;;
41829;SDS011;38614;43.472;23.936;2023-12-07T06:57:31;28.48;;;14.05;;
41829;SDS011;38614;43.472;23.936;2023-12-07T07:00:19;16.85;;;9.50;;
41829;SDS011;38614;43.472;23.936;2023-12-07T07:03:07;15.75;;;8.50;;
41829;SDS011;38614;43.472;23.936;2023-12-07T07:05:55;11.13;;;6.75;;
41829;SDS011;38614;43.472;23.936;2023-12-07T07:08:43;26.27;;;14.63;;
41829;SDS011;38614;43.472;23.936;2023-12-07T07:11:31;21.48;;;9.95;;
41829;SDS011;38614;43.472;23.936;2023-12-07T07:14:18;26.35;;;13.73;;
41829;SDS011;38614;43.472;23.936;2023-12-07T07:17:06;22.20;;;11.13;;
41829;SDS011;38614;43.472;23.936;2023-12-07T07:19:54;19.13;;;7.80;;
41829;SDS011;38614;43.472;23.936;2023-12-07T07:22:42;23.83;;;9.57;;
41829;SDS011;38614;43.472;23.936;2023-12-07T07:25:30;25.25;;;9.45;;
41829;SDS011;38614;43.472;23.936;2023-12-07T07:28:18;20.90;;;9.55;;
41829;SDS011;38614;43.472;23.936;2023-12-07T07:31:06;33.17;;;17.05;;
41829;SDS011;38614;43.472;23.936;2023-12-07T07:33:53;17.45;;;8.40;;
41829;SDS011;38614;43.472;23.936;2023-12-07T07:36:48;12.57;;;6.32;;
41829;SDS011;38614;43.472;23.936;2023-12-07T07:39:37;9.93;;;5.38;;
41829;SDS011;38614;43.472;23.936;2023-12-07T07:42:25;9.60;;;5.40;;
41829;SDS011;38614;43.472;23.936;2023-12-07T07:45:13;14.48;;;7.35;;
41829;SDS011;38614;43.472;23.936;2023-12-07T07:48:01;24.83;;;10.60;;
41829;SDS011;38614;43.472;23.936;2023-12-07T07:50:52;30.65;;;17.63;;
41829;SDS011;38614;43.472;23.936;2023-12-07T07:53:47;19.65;;;10.90;;
41829;SDS011;38614;43.472;23.936;2023-12-07T07:56:34;14.23;;;7.68;;
41829;SDS011;38614;43.472;23.936;2023-12-07T07:59:24;9.98;;;6.65;;
41829;SDS011;38614;43.472;23.936;2023-12-07T08:02:12;6.82;;;3.60;;
41829;SDS011;38614;43.472;23.936;2023-12-07T08:05:00;9.82;;;2.65;;
41829;SDS011;38614;43.472;23.936;2023-12-07T08:07:48;7.88;;;3.85;;
41829;SDS011;38614;43.472;23.936;2023-12-07T08:10:36;7.68;;;4.20;;
41829;SDS011;38614;43.472;23.936;2023-12-07T08:13:42;7.85;;;4.43;;
41829;SDS011;38614;43.472;23.936;2023-12-07T08:16:30;12.13;;;6.65;;
41829;SDS011;38614;43.472;23.936;2023-12-07T08:19:18;13.07;;;5.78;;
41829;SDS011;38614;43.472;23.936;2023-12-07T08:22:06;9.30;;;5.20;;
41829;SDS011;38614;43.472;23.936;2023-12-07T08:24:55;11.93;;;4.20;;
41829;SDS011;38614;43.472;23.936;2023-12-07T08:27:56;10.50;;;5.15;;
41829;SDS011;38614;43.472;23.936;2023-12-07T08:30:44;5.35;;;3.88;;
41829;SDS011;38614;43.472;23.936;2023-12-07T08:33:32;4.25;;;3.05;;
41829;SDS011;38614;43.472;23.936;2023-12-07T08:36:21;5.45;;;3.47;;
41829;SDS011;38614;43.472;23.936;2023-12-07T08:39:09;4.75;;;3.45;;
41829;SDS011;38614;43.472;23.936;2023-12-07T08:41:57;5.68;;;4.75;;
41829;SDS011;38614;43.472;23.936;2023-12-07T08:44:45;7.18;;;4.32;;
41829;SDS011;38614;43.472;23.936;2023-12-07T08:47:33;7.53;;;3.17;;
41829;SDS011;38614;43.472;23.936;2023-12-07T08:50:21;10.32;;;4.28;;
41829;SDS011;38614;43.472;23.936;2023-12-07T08:53:09;8.88;;;3.85;;
41829;SDS011;38614;43.472;23.936;2023-12-07T08:55:56;4.93;;;3.65;;
41829;SDS011;38614;43.472;23.936;2023-12-07T08:58:44;11.23;;;4.82;;
41829;SDS011;38614;43.472;23.936;2023-12-07T09:01:32;4.72;;;2.83;;
41829;SDS011;38614;43.472;23.936;2023-12-07T09:04:21;6.35;;;3.17;;
41829;SDS011;38614;43.472;23.936;2023-12-07T09:07:09;4.57;;;2.40;;
41829;SDS011;38614;43.472;23.936;2023-12-07T09:09:58;8.13;;;3.85;;
41829;SDS011;38614;43.472;23.936;2023-12-07T09:12:46;9.95;;;3.92;;
41829;SDS011;38614;43.472;23.936;2023-12-07T09:15:34;7.15;;;2.67;;
41829;SDS011;38614;43.472;23.936;2023-12-07T09:18:24;9.07;;;3.35;;
41829;SDS011;38614;43.472;23.936;2023-12-07T09:21:12;8.80;;;3.63;;
41829;SDS011;38614;43.472;23.936;2023-12-07T09:24:01;9.60;;;2.85;;
41829;SDS011;38614;43.472;23.936;2023-12-07T09:26:49;8.48;;;3.47;;
41829;SDS011;38614;43.472;23.936;2023-12-07T09:29:36;6.43;;;2.55;;
41829;SDS011;38614;43.472;23.936;2023-12-07T09:32:25;3.10;;;2.03;;
41829;SDS011;38614;43.472;23.936;2023-12-07T09:35:23;5.22;;;2.45;;
41829;SDS011;38614;43.472;23.936;2023-12-07T09:38:11;6.57;;;2.72;;
41829;SDS011;38614;43.472;23.936;2023-12-07T09:41:00;15.32;;;3.50;;
41829;SDS011;38614;43.472;23.936;2023-12-07T09:43:48;10.57;;;4.60;;
41829;SDS011;38614;43.472;23.936;2023-12-07T09:46:35;13.98;;;4.47;;
41829;SDS011;38614;43.472;23.936;2023-12-07T09:49:27;17.38;;;6.13;;
41829;SDS011;38614;43.472;23.936;2023-12-07T09:55:04;10.82;;;4.22;;
41829;SDS011;38614;43.472;23.936;2023-12-07T09:57:52;26.77;;;10.38;;
41829;SDS011;38614;43.472;23.936;2023-12-07T10:00:44;13.77;;;6.63;;
41829;SDS011;38614;43.472;23.936;2023-12-07T10:03:31;18.52;;;8.27;;
41829;SDS011;38614;43.472;23.936;2023-12-07T10:06:20;9.02;;;4.70;;
41829;SDS011;38614;43.472;23.936;2023-12-07T10:09:08;10.88;;;5.60;;
41829;SDS011;38614;43.472;23.936;2023-12-07T10:12:04;11.15;;;4.70;;
41829;SDS011;38614;43.472;23.936;2023-12-07T10:14:52;9.60;;;4.88;;
41829;SDS011;38614;43.472;23.936;2023-12-07T10:17:43;15.35;;;5.25;;
41829;SDS011;38614;43.472;23.936;2023-12-07T10:23:19;9.70;;;4.72;;
41829;SDS011;38614;43.472;23.936;2023-12-07T10:26:07;13.10;;;7.70;;
41829;SDS011;38614;43.472;23.936;2023-12-07T10:28:55;12.43;;;5.65;;
41829;SDS011;38614;43.472;23.936;2023-12-07T10:31:43;7.45;;;3.58;;
41829;SDS011;38614;43.472;23.936;2023-12-07T10:34:34;20.17;;;7.03;;
41829;SDS011;38614;43.472;23.936;2023-12-07T10:37:23;13.60;;;5.00;;
41829;SDS011;38614;43.472;23.936;2023-12-07T10:40:12;10.45;;;4.18;;
41829;SDS011;38614;43.472;23.936;2023-12-07T10:43:01;8.23;;;3.30;;
41829;SDS011;38614;43.472;23.936;2023-12-07T10:45:54;11.75;;;5.03;;
41829;SDS011;38614;43.472;23.936;2023-12-07T10:48:43;9.02;;;5.18;;
41829;SDS011;38614;43.472;23.936;2023-12-07T10:51:34;10.25;;;5.85;;
41829;SDS011;38614;43.472;23.936;2023-12-07T10:54:22;11.93;;;6.78;;
41829;SDS011;38614;43.472;23.936;2023-12-07T10:57:14;10.32;;;5.85;;
41829;SDS011;38614;43.472;23.936;2023-12-07T11:00:01;17.73;;;6.38;;
41829;SDS011;38614;43.472;23.936;2023-12-07T11:02:50;11.10;;;5.00;;
41829;SDS011;38614;43.472;23.936;2023-12-07T11:05:39;12.18;;;4.05;;
41829;SDS011;38614;43.472;23.936;2023-12-07T11:14:22;11.13;;;4.57;;
41829;SDS011;38614;43.472;23.936;2023-12-07T11:17:10;13.50;;;5.88;;
41829;SDS011;38614;43.472;23.936;2023-12-07T11:19:58;16.17;;;6.72;;
41829;SDS011;38614;43.472;23.936;2023-12-07T11:22:46;11.13;;;5.13;;
41829;SDS011;38614;43.472;23.936;2023-12-07T11:25:39;17.25;;;6.05;;
41829;SDS011;38614;43.472;23.936;2023-12-07T11:28:37;12.02;;;4.65;;
41829;SDS011;38614;43.472;23.936;2023-12-07T11:31:27;9.48;;;5.25;;
41829;SDS011;38614;43.472;23.936;2023-12-07T11:34:33;14.73;;;5.30;;
41829;SDS011;38614;43.472;23.936;2023-12-07T11:37:21;6.68;;;3.70;;
41829;SDS011;38614;43.472;23.936;2023-12-07T11:40:10;11.65;;;4.13;;
41829;SDS011;38614;43.472;23.936;2023-12-07T11:43:00;7.68;;;3.63;;
41829;SDS011;38614;43.472;23.936;2023-12-07T11:45:49;7.10;;;3.90;;
41829;SDS011;38614;43.472;23.936;2023-12-07T11:48:37;10.57;;;4.60;;
41829;SDS011;38614;43.472;23.936;2023-12-07T11:51:25;7.80;;;4.90;;
41829;SDS011;38614;43.472;23.936;2023-12-07T11:54:14;11.80;;;4.03;;
41829;SDS011;38614;43.472;23.936;2023-12-07T11:57:03;8.95;;;4.10;;
41829;SDS011;38614;43.472;23.936;2023-12-07T11:59:50;8.25;;;3.65;;
41829;SDS011;38614;43.472;23.936;2023-12-07T12:02:38;6.35;;;3.22;;
41829;SDS011;38614;43.472;23.936;2023-12-07T12:05:26;9.38;;;4.60;;
41829;SDS011;38614;43.472;23.936;2023-12-07T12:08:15;7.50;;;3.25;;
41829;SDS011;38614;43.472;23.936;2023-12-07T12:11:03;18.92;;;8.43;;
41829;SDS011;38614;43.472;23.936;2023-12-07T12:13:52;19.65;;;5.88;;
41829;SDS011;38614;43.472;23.936;2023-12-07T12:16:39;17.88;;;7.00;;
41829;SDS011;38614;43.472;23.936;2023-12-07T12:19:27;11.27;;;5.65;;
41829;SDS011;38614;43.472;23.936;2023-12-07T12:22:20;11.70;;;3.53;;
41829;SDS011;38614;43.472;23.936;2023-12-07T12:25:08;5.53;;;3.10;;
41829;SDS011;38614;43.472;23.936;2023-12-07T12:27:56;3.42;;;2.70;;
41829;SDS011;38614;43.472;23.936;2023-12-07T12:30:47;4.53;;;2.38;;
41829;SDS011;38614;43.472;23.936;2023-12-07T12:33:36;9.43;;;3.35;;
41829;SDS011;38614;43.472;23.936;2023-12-07T12:36:24;4.95;;;2.78;;
41829;SDS011;38614;43.472;23.936;2023-12-07T12:39:14;8.40;;;3.90;;
41829;SDS011;38614;43.472;23.936;2023-12-07T12:42:15;6.07;;;4.73;;
41829;SDS011;38614;43.472;23.936;2023-12-07T12:45:04;4.70;;;3.58;;
41829;SDS011;38614;43.472;23.936;2023-12-07T12:47:52;7.30;;;3.80;;
41829;SDS011;38614;43.472;23.936;2023-12-07T12:50:42;3.95;;;2.28;;
41829;SDS011;38614;43.472;23.936;2023-12-07T12:53:29;3.35;;;2.38;;
41829;SDS011;38614;43.472;23.936;2023-12-07T12:56:17;2.72;;;1.42;;
41829;SDS011;38614;43.472;23.936;2023-12-07T12:59:05;3.30;;;1.67;;
41829;SDS011;38614;43.472;23.936;2023-12-07T13:01:55;3.80;;;1.48;;
41829;SDS011;38614;43.472;23.936;2023-12-07T13:04:46;9.35;;;2.08;;
41829;SDS011;38614;43.472;23.936;2023-12-07T13:07:37;4.72;;;2.63;;
41829;SDS011;38614;43.472;23.936;2023-12-07T13:10:25;15.70;;;9.60;;
41829;SDS011;38614;43.472;23.936;2023-12-07T13:13:13;9.25;;;5.72;;
41829;SDS011;38614;43.472;23.936;2023-12-07T13:16:01;9.23;;;3.45;;
41829;SDS011;38614;43.472;23.936;2023-12-07T13:18:48;5.35;;;2.13;;
41829;SDS011;38614;43.472;23.936;2023-12-07T13:21:36;4.03;;;1.38;;
41829;SDS011;38614;43.472;23.936;2023-12-07T13:24:24;1.42;;;1.30;;
41829;SDS011;38614;43.472;23.936;2023-12-07T13:27:12;2.83;;;1.75;;
41829;SDS011;38614;43.472;23.936;2023-12-07T13:30:00;2.17;;;1.30;;
41829;SDS011;38614;43.472;23.936;2023-12-07T13:32:49;2.83;;;1.52;;
41829;SDS011;38614;43.472;23.936;2023-12-07T13:35:37;10.15;;;3.58;;
41829;SDS011;38614;43.472;23.936;2023-12-07T13:38:25;6.85;;;2.38;;
41829;SDS011;38614;43.472;23.936;2023-12-07T13:41:13;9.93;;;5.10;;
41829;SDS011;38614;43.472;23.936;2023-12-07T13:44:00;7.45;;;3.75;;
41829;SDS011;38614;43.472;23.936;2023-12-07T13:49:41;8.75;;;3.58;;
41829;SDS011;38614;43.472;23.936;2023-12-07T13:52:29;9.73;;;5.75;;
41829;SDS011;38614;43.472;23.936;2023-12-07T13:55:16;12.40;;;5.47;;
41829;SDS011;38614;43.472;23.936;2023-12-07T13:58:04;10.60;;;5.25;;
41829;SDS011;38614;43.472;23.936;2023-12-07T14:00:54;9.82;;;4.47;;
41829;SDS011;38614;43.472;23.936;2023-12-07T14:03:41;7.47;;;3.95;;
41829;SDS011;38614;43.472;23.936;2023-12-07T14:06:29;13.13;;;8.23;;
41829;SDS011;38614;43.472;23.936;2023-12-07T14:09:17;27.20;;;16.15;;
41829;SDS011;38614;43.472;23.936;2023-12-07T14:12:05;20.52;;;13.73;;
41829;SDS011;38614;43.472;23.936;2023-12-07T14:14:54;14.30;;;9.02;;
41829;SDS011;38614;43.472;23.936;2023-12-07T14:17:44;16.88;;;3.47;;
41829;SDS011;38614;43.472;23.936;2023-12-07T14:20:42;10.95;;;6.22;;
41829;SDS011;38614;43.472;23.936;2023-12-07T14:23:51;21.50;;;11.60;;
41829;SDS011;38614;43.472;23.936;2023-12-07T14:26:42;36.67;;;17.00;;
41829;SDS011;38614;43.472;23.936;2023-12-07T14:29:31;28.98;;;16.00;;
41829;SDS011;38614;43.472;23.936;2023-12-07T14:32:19;14.60;;;7.85;;
41829;SDS011;38614;43.472;23.936;2023-12-07T14:35:07;14.73;;;6.65;;
41829;SDS011;38614;43.472;23.936;2023-12-07T14:37:55;19.30;;;10.75;;
41829;SDS011;38614;43.472;23.936;2023-12-07T14:40:43;9.57;;;6.55;;
41829;SDS011;38614;43.472;23.936;2023-12-07T14:43:31;8.40;;;5.45;;
41829;SDS011;38614;43.472;23.936;2023-12-07T14:46:19;16.42;;;7.45;;
41829;SDS011;38614;43.472;23.936;2023-12-07T14:49:07;17.67;;;9.15;;
41829;SDS011;38614;43.472;23.936;2023-12-07T14:51:55;15.27;;;4.93;;
41829;SDS011;38614;43.472;23.936;2023-12-07T14:54:46;10.77;;;5.97;;
41829;SDS011;38614;43.472;23.936;2023-12-07T14:57:35;8.57;;;4.95;;
41829;SDS011;38614;43.472;23.936;2023-12-07T15:00:22;10.70;;;3.80;;
41829;SDS011;38614;43.472;23.936;2023-12-07T15:03:13;3.58;;;2.95;;
41829;SDS011;38614;43.472;23.936;2023-12-07T15:06:01;5.55;;;3.65;;
41829;SDS011;38614;43.472;23.936;2023-12-07T15:08:49;10.88;;;5.03;;
41829;SDS011;38614;43.472;23.936;2023-12-07T15:11:38;7.75;;;4.88;;
41829;SDS011;38614;43.472;23.936;2023-12-07T15:14:27;24.63;;;5.95;;
41829;SDS011;38614;43.472;23.936;2023-12-07T15:17:24;8.45;;;4.28;;
41829;SDS011;38614;43.472;23.936;2023-12-07T15:20:16;9.98;;;5.40;;
41829;SDS011;38614;43.472;23.936;2023-12-07T15:23:03;7.03;;;3.67;;
41829;SDS011;38614;43.472;23.936;2023-12-07T15:25:52;11.75;;;5.18;;
41829;SDS011;38614;43.472;23.936;2023-12-07T15:28:40;9.13;;;4.55;;
41829;SDS011;38614;43.472;23.936;2023-12-07T15:31:29;8.65;;;5.15;;
41829;SDS011;38614;43.472;23.936;2023-12-07T15:34:20;19.10;;;5.43;;
41829;SDS011;38614;43.472;23.936;2023-12-07T15:37:23;4.43;;;2.67;;
41829;SDS011;38614;43.472;23.936;2023-12-07T15:40:11;4.53;;;2.78;;
41829;SDS011;38614;43.472;23.936;2023-12-07T15:42:59;41.88;;;12.43;;
41829;SDS011;38614;43.472;23.936;2023-12-07T15:45:47;206.45;;;60.92;;
41829;SDS011;38614;43.472;23.936;2023-12-07T15:48:34;115.20;;;37.97;;
41829;SDS011;38614;43.472;23.936;2023-12-07T15:51:22;26.40;;;14.77;;
41829;SDS011;38614;43.472;23.936;2023-12-07T15:54:10;8.57;;;5.75;;
41829;SDS011;38614;43.472;23.936;2023-12-07T15:57:31;13.25;;;7.43;;
41829;SDS011;38614;43.472;23.936;2023-12-07T16:00:24;3.53;;;1.80;;
41829;SDS011;38614;43.472;23.936;2023-12-07T16:03:15;34.30;;;17.73;;
41829;SDS011;38614;43.472;23.936;2023-12-07T16:06:06;11.55;;;7.07;;
41829;SDS011;38614;43.472;23.936;2023-12-07T16:08:55;2.45;;;2.25;;
41829;SDS011;38614;43.472;23.936;2023-12-07T16:11:44;2.30;;;1.45;;
41829;SDS011;38614;43.472;23.936;2023-12-07T16:14:31;1.85;;;0.68;;
41829;SDS011;38614;43.472;23.936;2023-12-07T16:17:20;3.10;;;1.08;;
41829;SDS011;38614;43.472;23.936;2023-12-07T16:20:08;7.40;;;1.17;;
41829;SDS011;38614;43.472;23.936;2023-12-07T16:22:58;1.45;;;1.20;;
41829;SDS011;38614;43.472;23.936;2023-12-07T16:25:49;4.15;;;1.55;;
41829;SDS011;38614;43.472;23.936;2023-12-07T16:28:39;4.65;;;1.20;;
41829;SDS011;38614;43.472;23.936;2023-12-07T16:31:27;7.25;;;3.47;;
41829;SDS011;38614;43.472;23.936;2023-12-07T16:34:15;4.55;;;2.22;;
41829;SDS011;38614;43.472;23.936;2023-12-07T16:37:06;11.07;;;2.33;;
41829;SDS011;38614;43.472;23.936;2023-12-07T16:39:55;6.63;;;1.95;;
41829;SDS011;38614;43.472;23.936;2023-12-07T16:42:44;10.02;;;3.20;;
41829;SDS011;38614;43.472;23.936;2023-12-07T16:45:32;5.65;;;2.13;;
41829;SDS011;38614;43.472;23.936;2023-12-07T16:48:21;4.55;;;1.85;;